createdAt,value
2022-09-24T00:00:17.395Z,55.43
2022-09-24T00:02:20.109Z,55.48
2022-09-24T00:04:25.738Z,55.37
2022-09-24T00:06:30.780Z,55.77
2022-09-24T00:08:34.356Z,55.84
2022-09-24T00:10:42.223Z,56.27
2022-09-24T00:12:44.975Z,56.52
2022-09-24T00:14:47.574Z,57.25
2022-09-24T00:16:50.256Z,57.97
2022-09-24T00:18:54.142Z,58.02
2022-09-24T00:20:57.408Z,58.06
2022-09-24T00:23:01.275Z,58.89
2022-09-24T00:25:22.708Z,58.51
2022-09-24T00:27:25.537Z,58.70
2022-09-24T00:29:28.130Z,59.20
2022-09-24T00:31:31.343Z,58.97
2022-09-24T00:33:35.275Z,58.38
2022-09-24T00:35:41.717Z,58.46
2022-09-24T00:37:44.820Z,58.13
2022-09-24T00:39:47.426Z,58.08
2022-09-24T00:41:50.000Z,57.52
2022-09-24T00:43:52.709Z,57.61
2022-09-24T00:46:32.572Z,57.69
2022-09-24T00:48:35.671Z,57.83
2022-09-24T00:50:38.361Z,57.88
2022-09-24T00:52:53.392Z,56.72
2022-09-24T00:54:56.180Z,57.06
2022-09-24T00:57:00.318Z,57.42
2022-09-24T00:59:05.021Z,57.10
2022-09-24T01:01:08.294Z,57.58
2022-09-24T01:03:17.287Z,56.98
2022-09-24T01:05:20.190Z,57.01
2022-09-24T01:07:23.332Z,56.79
2022-09-24T01:09:27.667Z,56.66
2022-09-24T01:11:45.040Z,57.05
2022-09-24T01:14:41.496Z,56.74
2022-09-24T01:17:21.620Z,56.97
2022-09-24T01:19:48.384Z,56.78
2022-09-24T01:21:57.970Z,57.15
2022-09-24T01:24:40.608Z,57.08
2022-09-24T01:27:07.690Z,57.05
2022-09-24T01:29:42.237Z,56.80
2022-09-24T01:32:16.196Z,57.20
2022-09-24T01:34:24.253Z,56.61
2022-09-24T01:36:28.478Z,55.51
2022-09-24T01:38:35.453Z,55.19
2022-09-24T01:40:40.218Z,54.85
2022-09-24T01:42:45.242Z,54.59
2022-09-24T01:44:50.501Z,54.23
2022-09-24T01:46:54.660Z,54.13
2022-09-24T01:48:58.680Z,53.75
2022-09-24T01:51:23.584Z,54.38
2022-09-24T01:53:32.265Z,54.10
2022-09-24T01:55:42.626Z,55.42
2022-09-24T01:58:14.841Z,55.61
2022-09-24T02:00:19.786Z,54.84
2022-09-24T02:02:29.229Z,54.95
2022-09-24T02:04:36.880Z,54.55
2022-09-24T02:06:47.806Z,54.07
2022-09-24T02:08:50.399Z,54.24
2022-09-24T02:11:06.914Z,54.45
2022-09-24T02:13:14.316Z,54.73
2022-09-24T02:15:30.110Z,54.55
2022-09-24T02:17:38.482Z,54.66
2022-09-24T02:19:42.822Z,54.91
2022-09-24T02:21:46.728Z,54.96
2022-09-24T02:23:56.908Z,55.43
2022-09-24T02:26:04.237Z,55.68
2022-09-24T02:28:06.851Z,56.08
2022-09-24T02:30:11.077Z,56.27
2022-09-24T02:32:20.172Z,56.75
2022-09-24T02:34:29.282Z,57.57
2022-09-24T02:36:32.319Z,58.30
2022-09-24T02:38:35.172Z,58.66
2022-09-24T02:40:37.796Z,59.35
2022-09-24T02:42:42.475Z,59.79
2022-09-24T02:44:45.163Z,60.31
2022-09-24T02:46:48.277Z,60.42
2022-09-24T02:48:51.015Z,61.60
2022-09-24T02:50:54.151Z,62.36
2022-09-24T02:52:56.695Z,62.61
2022-09-24T02:54:59.266Z,62.39
2022-09-24T02:57:01.920Z,63.36
2022-09-24T02:59:05.032Z,63.59
2022-09-24T03:01:07.577Z,63.03
2022-09-24T03:03:10.344Z,62.84
2022-09-24T03:05:12.941Z,62.72
2022-09-24T03:07:15.543Z,63.08
2022-09-24T03:09:18.235Z,63.16
2022-09-24T03:11:22.012Z,63.72
2022-09-24T03:13:24.711Z,64.76
2022-09-24T03:15:27.430Z,65.23
2022-09-24T03:17:30.073Z,65.57
2022-09-24T03:19:32.678Z,65.21
2022-09-24T03:21:35.499Z,65.32
2022-09-24T03:23:38.689Z,65.66
2022-09-24T03:25:41.433Z,65.67
2022-09-24T03:27:44.191Z,65.00
2022-09-24T03:30:05.313Z,64.40
2022-09-24T03:32:07.887Z,64.49
2022-09-24T03:34:10.586Z,63.57
2022-09-24T03:36:24.705Z,62.85
2022-09-24T03:38:29.498Z,63.16
2022-09-24T03:40:32.334Z,63.77
2022-09-24T03:42:34.961Z,63.61
2022-09-24T03:44:37.576Z,64.20
2022-09-24T03:46:40.255Z,64.69
2022-09-24T03:48:43.709Z,65.14
2022-09-24T03:50:46.908Z,65.20
2022-09-24T03:52:49.599Z,64.51
2022-09-24T03:54:52.470Z,64.71
2022-09-24T03:56:55.050Z,65.12
2022-09-24T03:58:57.736Z,65.00
2022-09-24T04:01:00.398Z,65.69
2022-09-24T04:03:03.075Z,65.59
2022-09-24T04:05:06.177Z,64.85
2022-09-24T04:07:08.812Z,64.91
2022-09-24T04:09:11.476Z,65.72
2022-09-24T04:11:14.151Z,66.82
2022-09-24T04:13:17.694Z,68.42
2022-09-24T04:15:21.819Z,68.33
2022-09-24T04:17:24.974Z,68.64
2022-09-24T04:19:27.554Z,67.98
2022-09-24T04:21:30.540Z,67.80
2022-09-24T04:23:33.272Z,67.32
2022-09-24T04:25:35.883Z,67.47
2022-09-24T04:27:39.192Z,67.53
2022-09-24T04:29:42.205Z,68.08
2022-09-24T04:31:46.290Z,67.64
2022-09-24T04:33:48.937Z,66.71
2022-09-24T04:35:51.734Z,66.29
2022-09-24T04:37:54.348Z,66.98
2022-09-24T04:39:57.217Z,67.07
2022-09-24T04:41:59.931Z,67.19
2022-09-24T04:44:02.565Z,67.16
2022-09-24T04:46:06.380Z,67.02
2022-09-24T04:48:09.232Z,66.97
2022-09-24T04:50:12.856Z,66.43
2022-09-24T04:52:15.841Z,66.69
2022-09-24T04:54:18.535Z,66.58
2022-09-24T04:56:21.192Z,66.39
2022-09-24T04:58:23.772Z,65.83
2022-09-24T05:00:26.636Z,65.49
2022-09-24T05:02:29.774Z,65.48
2022-09-24T05:04:32.439Z,64.86
2022-09-24T05:06:36.527Z,64.85
2022-09-24T05:08:39.216Z,64.15
2022-09-24T05:10:41.920Z,63.57
2022-09-24T05:12:44.595Z,62.79
2022-09-24T05:14:47.167Z,63.04
2022-09-24T05:16:49.958Z,62.94
2022-09-24T05:18:52.751Z,62.65
2022-09-24T05:20:56.335Z,62.54
2022-09-24T05:22:58.915Z,62.89
2022-09-24T05:25:01.556Z,63.27
2022-09-24T05:27:10.731Z,63.23
2022-09-24T05:29:13.517Z,63.36
2022-09-24T05:31:17.576Z,63.55
2022-09-24T05:33:20.395Z,64.64
2022-09-24T05:35:24.323Z,64.34
2022-09-24T05:37:27.094Z,64.44
2022-09-24T05:39:33.984Z,64.42
2022-09-24T05:41:37.481Z,64.58
2022-09-24T05:43:41.402Z,64.31
2022-09-24T05:45:46.823Z,64.99
2022-09-24T05:47:50.709Z,65.06
2022-09-24T05:49:53.461Z,65.04
2022-09-24T05:51:56.093Z,64.74
2022-09-24T05:53:58.845Z,64.39
2022-09-24T05:56:01.886Z,63.76
2022-09-24T05:58:10.489Z,62.82
2022-09-24T06:00:13.368Z,62.65
2022-09-24T06:02:16.129Z,62.20
2022-09-24T06:04:18.821Z,61.08
2022-09-24T06:06:21.368Z,60.77
2022-09-24T06:08:24.097Z,59.83
2022-09-24T06:10:26.686Z,60.11
2022-09-24T06:12:29.308Z,59.26
2022-09-24T06:14:32.025Z,57.58
2022-09-24T06:16:35.506Z,58.17
2022-09-24T06:18:40.870Z,57.34
2022-09-24T06:20:45.077Z,56.62
2022-09-24T06:22:48.105Z,57.20
2022-09-24T06:24:51.697Z,57.13
2022-09-24T06:26:54.863Z,55.07
2022-09-24T06:29:00.869Z,55.11
2022-09-24T06:31:08.266Z,55.99
2022-09-24T06:33:13.330Z,54.17
2022-09-24T06:35:15.930Z,54.83
2022-09-24T06:37:18.459Z,55.21
2022-09-24T06:39:24.679Z,55.18
2022-09-24T06:41:27.223Z,55.61
2022-09-24T06:43:30.663Z,55.37
2022-09-24T06:45:34.541Z,54.46
2022-09-24T06:47:37.171Z,52.91
2022-09-24T06:49:40.522Z,52.11
2022-09-24T06:51:43.234Z,53.74
2022-09-24T06:53:45.807Z,53.54
2022-09-24T06:55:49.248Z,52.09
2022-09-24T06:58:05.526Z,52.54
2022-09-24T07:00:09.501Z,52.38
2022-09-24T07:02:12.172Z,51.29
2022-09-24T07:04:14.890Z,50.47
2022-09-24T07:06:17.425Z,50.85
2022-09-24T07:08:20.071Z,51.15
2022-09-24T07:10:24.701Z,51.13
2022-09-24T07:12:27.518Z,52.25
2022-09-24T07:14:30.326Z,52.40
2022-09-24T07:16:33.215Z,52.83
2022-09-24T07:18:37.731Z,53.23
2022-09-24T07:20:40.955Z,51.48
2022-09-24T07:22:43.684Z,51.02
2022-09-24T07:24:46.613Z,51.83
2022-09-24T07:26:49.380Z,50.92
2022-09-24T07:28:52.034Z,49.88
2022-09-24T07:30:59.922Z,50.42
2022-09-24T07:33:03.603Z,50.16
2022-09-24T07:35:06.886Z,48.54
2022-09-24T07:37:09.672Z,48.87
2022-09-24T07:39:12.264Z,48.97
2022-09-24T07:41:15.055Z,49.07
2022-09-24T07:43:17.703Z,50.10
2022-09-24T07:45:20.835Z,50.25
2022-09-24T07:47:23.758Z,49.62
2022-09-24T07:49:26.824Z,48.65
2022-09-24T07:51:29.822Z,47.34
2022-09-24T07:53:32.371Z,48.10
2022-09-24T07:55:39.690Z,48.04
2022-09-24T07:58:00.704Z,47.03
2022-09-24T08:00:03.662Z,47.67
2022-09-24T08:02:17.630Z,46.25
2022-09-24T08:04:20.826Z,45.97
2022-09-24T08:06:24.615Z,46.75
2022-09-24T08:08:27.526Z,44.22
2022-09-24T08:10:30.277Z,45.92
2022-09-24T08:12:33.185Z,44.39
2022-09-24T08:14:36.490Z,44.65
2022-09-24T08:16:40.883Z,43.00
2022-09-24T08:18:44.336Z,43.83
2022-09-24T08:20:47.339Z,43.89
2022-09-24T08:22:50.098Z,44.91
2022-09-24T08:24:53.504Z,44.96
2022-09-24T08:26:56.220Z,43.68
2022-09-24T08:28:58.812Z,42.13
2022-09-24T08:31:04.386Z,41.70
2022-09-24T08:33:07.723Z,43.73
2022-09-24T08:35:10.570Z,43.43
2022-09-24T08:37:14.099Z,43.52
2022-09-24T08:39:17.061Z,42.73
2022-09-24T08:41:47.492Z,41.79
2022-09-24T08:44:11.640Z,41.84
2022-09-24T08:46:40.106Z,42.28
2022-09-24T08:48:47.771Z,40.95
2022-09-24T08:50:58.275Z,41.21
2022-09-24T08:53:17.188Z,42.43
2022-09-24T08:55:36.873Z,43.69
2022-09-24T08:57:59.180Z,43.25
2022-09-24T09:00:02.066Z,42.93
2022-09-24T09:02:45.417Z,42.59
2022-09-24T09:05:10.226Z,43.47
2022-09-24T09:07:24.572Z,44.16
2022-09-24T09:09:41.328Z,43.87
2022-09-24T09:11:51.689Z,44.07
2022-09-24T09:14:03.847Z,43.80
2022-09-24T09:16:18.147Z,43.64
2022-09-24T09:18:32.015Z,44.42
2022-09-24T09:20:40.962Z,45.07
2022-09-24T09:22:48.180Z,46.22
2022-09-24T09:24:53.460Z,47.43
2022-09-24T09:26:56.945Z,48.46
2022-09-24T09:29:01.700Z,49.57
2022-09-24T09:31:31.902Z,50.06
2022-09-24T09:33:43.319Z,51.29
2022-09-24T09:35:48.550Z,51.48
2022-09-24T09:38:20.844Z,52.82
2022-09-24T09:40:30.826Z,53.46
2022-09-24T09:42:37.216Z,54.78
2022-09-24T09:44:42.128Z,54.12
2022-09-24T09:46:53.612Z,55.21
2022-09-24T09:49:03.226Z,55.69
2022-09-24T09:51:07.013Z,56.36
2022-09-24T09:53:31.387Z,57.03
2022-09-24T09:55:36.905Z,57.31
2022-09-24T09:57:41.996Z,57.03
2022-09-24T09:59:50.085Z,57.28
2022-09-24T10:01:56.653Z,57.66
2022-09-24T10:04:03.374Z,57.99
2022-09-24T10:06:07.635Z,58.38
2022-09-24T10:08:22.200Z,58.95
2022-09-24T10:10:27.414Z,58.79
2022-09-24T10:12:30.642Z,59.12
2022-09-24T10:14:33.667Z,59.13
2022-09-24T10:16:39.504Z,59.12
2022-09-24T10:18:51.607Z,59.04
2022-09-24T10:20:55.927Z,59.13
2022-09-24T10:23:03.406Z,58.94
2022-09-24T10:25:06.713Z,58.45
2022-09-24T10:27:24.928Z,57.93
2022-09-24T10:29:51.643Z,58.09
2022-09-24T10:31:54.565Z,58.41
2022-09-24T10:33:59.333Z,58.40
2022-09-24T10:36:07.877Z,58.15
2022-09-24T10:38:21.799Z,58.58
2022-09-24T10:40:31.313Z,58.02
2022-09-24T10:42:34.203Z,58.03
2022-09-24T10:44:37.757Z,57.52
2022-09-24T10:47:02.231Z,56.78
2022-09-24T10:49:27.534Z,55.95
2022-09-24T10:51:52.332Z,54.07
2022-09-24T10:54:22.938Z,51.09
2022-09-24T10:56:33.860Z,50.60
2022-09-24T10:58:51.820Z,49.72
2022-09-24T11:01:15.883Z,49.86
2022-09-24T11:03:29.828Z,50.07
2022-09-24T11:05:38.817Z,50.60
2022-09-24T11:08:03.223Z,50.58
2022-09-24T11:10:51.902Z,51.38
2022-09-24T11:13:03.486Z,50.61
2022-09-24T11:15:27.096Z,49.91
2022-09-24T11:18:00.351Z,49.70
2022-09-24T11:20:13.788Z,49.60
2022-09-24T11:22:23.400Z,48.65
2022-09-24T11:24:50.142Z,48.01
2022-09-24T11:27:49.782Z,47.69
2022-09-24T11:30:01.503Z,46.55
2022-09-24T11:32:39.745Z,46.08
2022-09-24T11:34:58.516Z,46.28
2022-09-24T11:37:13.311Z,46.80
2022-09-24T11:39:18.472Z,46.91
2022-09-24T11:41:50.786Z,47.62
2022-09-24T11:43:56.010Z,47.54
2022-09-24T11:46:30.875Z,47.03
2022-09-24T11:48:52.318Z,46.94
2022-09-24T11:51:08.887Z,45.92
2022-09-24T11:53:40.644Z,45.73
2022-09-24T11:55:53.853Z,46.50
2022-09-24T11:58:05.217Z,47.27
2022-09-24T12:00:13.107Z,47.88
2022-09-24T12:02:25.317Z,48.49
2022-09-24T12:04:48.944Z,49.15
2022-09-24T12:07:13.055Z,48.90
2022-09-24T12:09:39.898Z,48.84
2022-09-24T12:11:49.657Z,48.15
2022-09-24T12:14:19.899Z,47.00
2022-09-24T12:16:27.163Z,46.41
2022-09-24T12:18:36.931Z,46.04
2022-09-24T12:21:13.258Z,44.36
2022-09-24T12:23:19.020Z,44.81
2022-09-24T12:25:22.001Z,45.42
2022-09-24T12:27:34.617Z,46.11
2022-09-24T12:30:10.808Z,47.53
2022-09-24T12:34:53.500Z,49.05
2022-09-24T12:37:02.718Z,49.59
2022-09-24T12:39:15.594Z,50.44
2022-09-24T12:41:29.909Z,51.08
2022-09-24T12:43:57.656Z,51.33
2022-09-24T12:46:05.586Z,51.76
2022-09-24T12:48:16.070Z,51.48
2022-09-24T12:50:31.733Z,51.74
2022-09-24T12:52:43.133Z,51.89
2022-09-24T12:54:46.307Z,51.65
2022-09-24T12:56:49.193Z,51.64
2022-09-24T12:58:52.162Z,51.40
2022-09-24T13:01:07.476Z,51.83
2022-09-24T13:03:36.771Z,52.24
2022-09-24T13:05:45.919Z,52.63
2022-09-24T13:08:25.240Z,52.79
2022-09-24T13:10:38.501Z,53.02
2022-09-24T13:12:41.218Z,53.78
2022-09-24T13:15:02.941Z,53.70
2022-09-24T13:17:08.024Z,54.00
2022-09-24T13:19:34.487Z,53.97
2022-09-24T13:21:40.281Z,53.86
2022-09-24T13:23:44.211Z,54.19
2022-09-24T13:26:05.101Z,55.07
2022-09-24T13:28:23.337Z,55.33
2022-09-24T13:30:41.167Z,55.47
2022-09-24T13:32:55.825Z,55.72
2022-09-24T13:35:00.160Z,55.50
2022-09-24T13:37:15.634Z,55.71
2022-09-24T13:39:23.369Z,55.78
2022-09-24T13:41:47.973Z,55.89
2022-09-24T13:44:00.006Z,55.86
2022-09-24T13:46:07.983Z,56.06
2022-09-24T13:48:34.411Z,56.53
2022-09-24T13:50:59.071Z,56.51
2022-09-24T13:53:07.723Z,57.07
2022-09-24T13:55:32.000Z,57.08
2022-09-24T13:57:46.513Z,58.20
2022-09-24T13:59:49.176Z,58.25
2022-09-24T14:01:51.957Z,58.70
2022-09-24T14:04:07.395Z,59.13
2022-09-24T14:06:22.022Z,59.55
2022-09-24T14:08:27.634Z,59.57
2022-09-24T14:10:30.470Z,59.67
2022-09-24T14:12:33.535Z,59.81
2022-09-24T14:14:36.407Z,59.70
2022-09-24T14:16:39.031Z,59.74
2022-09-24T14:18:41.729Z,59.75
2022-09-24T14:20:46.425Z,59.90
2022-09-24T14:22:49.522Z,60.35
2022-09-24T14:25:07.944Z,60.23
2022-09-24T14:27:16.141Z,60.67
2022-09-24T14:29:26.934Z,60.41
2022-09-24T14:31:30.310Z,60.75
2022-09-24T14:33:34.336Z,60.79
2022-09-24T14:35:39.241Z,60.91
2022-09-24T14:37:50.896Z,61.70
2022-09-24T14:40:05.384Z,62.35
2022-09-24T14:42:22.192Z,62.36
2022-09-24T14:44:30.189Z,62.00
2022-09-24T14:46:49.899Z,61.39
2022-09-24T14:48:53.470Z,61.13
2022-09-24T14:50:56.805Z,61.09
2022-09-24T14:53:00.992Z,61.02
2022-09-24T14:55:21.067Z,61.33
2022-09-24T14:57:25.728Z,61.56
2022-09-24T14:59:31.284Z,61.44
2022-09-24T15:01:34.348Z,61.54
2022-09-24T15:04:08.079Z,61.70
2022-09-24T15:06:21.684Z,61.66
2022-09-24T15:08:30.726Z,60.95
2022-09-24T15:10:33.438Z,60.69
2022-09-24T15:12:40.394Z,60.59
2022-09-24T15:14:54.852Z,60.28
2022-09-24T15:17:10.708Z,60.53
2022-09-24T15:19:21.799Z,60.30
2022-09-24T15:21:24.618Z,60.43
2022-09-24T15:23:27.267Z,60.39
2022-09-24T15:25:30.019Z,60.31
2022-09-24T15:27:37.224Z,59.99
2022-09-24T15:29:40.016Z,60.35
2022-09-24T15:31:43.050Z,61.07
2022-09-24T15:33:45.886Z,60.47
2022-09-24T15:35:49.183Z,60.09
2022-09-24T15:37:51.989Z,59.83
2022-09-24T15:40:06.769Z,59.65
2022-09-24T15:42:09.558Z,59.76
2022-09-24T15:44:23.239Z,59.51
2022-09-24T15:46:26.669Z,59.29
2022-09-24T15:48:29.488Z,59.15
2022-09-24T15:50:32.171Z,58.84
2022-09-24T15:52:42.031Z,58.73
2022-09-24T15:54:44.729Z,59.26
2022-09-24T15:56:52.440Z,59.48
2022-09-24T15:58:55.832Z,59.59
2022-09-24T16:00:58.537Z,59.77
2022-09-24T16:03:01.952Z,59.92
2022-09-24T16:05:11.476Z,60.15
2022-09-24T16:07:14.240Z,60.79
2022-09-24T16:09:17.027Z,60.60
2022-09-24T16:11:19.703Z,60.86
2022-09-24T16:13:23.445Z,60.98
2022-09-24T16:15:26.168Z,61.16
2022-09-24T16:17:29.593Z,61.54
2022-09-24T16:19:32.246Z,61.80
2022-09-24T16:21:34.923Z,61.78
2022-09-24T16:23:37.550Z,62.18
2022-09-24T16:25:41.138Z,62.44
2022-09-24T16:27:44.214Z,62.55
2022-09-24T16:29:46.816Z,62.58
2022-09-24T16:31:49.744Z,62.71
2022-09-24T16:33:52.487Z,62.81
2022-09-24T16:35:55.135Z,62.43
2022-09-24T16:37:57.823Z,62.22
2022-09-24T16:40:00.574Z,62.26
2022-09-24T16:42:03.277Z,62.50
2022-09-24T16:44:07.086Z,62.32
2022-09-24T16:46:10.449Z,62.17
2022-09-24T16:48:13.816Z,62.53
2022-09-24T16:50:17.179Z,62.72
2022-09-24T16:52:19.802Z,63.00
2022-09-24T16:54:23.206Z,63.06
2022-09-24T16:56:26.058Z,63.31
2022-09-24T16:58:28.651Z,63.68
2022-09-24T17:00:31.858Z,63.67
2022-09-24T17:02:34.887Z,63.44
2022-09-24T17:04:37.575Z,63.57
2022-09-24T17:06:40.756Z,63.76
2022-09-24T17:09:01.854Z,63.61
2022-09-24T17:11:04.591Z,63.26
2022-09-24T17:13:08.044Z,63.06
2022-09-24T17:15:11.471Z,62.52
2022-09-24T17:17:14.356Z,62.43
2022-09-24T17:19:17.083Z,62.06
2022-09-24T17:21:19.721Z,62.15
2022-09-24T17:23:22.301Z,62.43
2022-09-24T17:25:24.939Z,62.71
2022-09-24T17:27:28.959Z,62.94
2022-09-24T17:29:31.963Z,62.97
2022-09-24T17:31:34.871Z,63.34
2022-09-24T17:33:45.127Z,63.37
2022-09-24T17:35:58.549Z,63.79
2022-09-24T17:38:01.175Z,63.82
2022-09-24T17:40:04.501Z,63.71
2022-09-24T17:42:08.116Z,63.48
2022-09-24T17:44:13.232Z,63.96
2022-09-24T17:46:22.596Z,63.59
2022-09-24T17:48:29.551Z,63.70
2022-09-24T17:50:32.688Z,64.15
2022-09-24T17:52:35.349Z,64.20
2022-09-24T17:54:37.934Z,64.41
2022-09-24T17:56:40.792Z,64.63
2022-09-24T17:58:47.086Z,64.63
2022-09-24T18:00:51.565Z,64.51
2022-09-24T18:02:55.396Z,64.43
2022-09-24T18:04:58.360Z,65.02
2022-09-24T18:07:01.452Z,64.70
2022-09-24T18:09:05.057Z,64.08
2022-09-24T18:11:22.971Z,64.04
2022-09-24T18:13:26.368Z,63.94
2022-09-24T18:15:30.889Z,63.56
2022-09-24T18:17:33.883Z,63.36
2022-09-24T18:19:36.953Z,63.42
2022-09-24T18:21:40.331Z,63.27
2022-09-24T18:23:43.822Z,63.06
2022-09-24T18:25:48.163Z,63.13
2022-09-24T18:27:51.181Z,63.25
2022-09-24T18:29:54.461Z,63.48
2022-09-24T18:31:58.007Z,63.44
2022-09-24T18:34:07.302Z,63.55
2022-09-24T18:36:14.177Z,63.76
2022-09-24T18:38:17.293Z,63.78
2022-09-24T18:40:20.340Z,63.75
2022-09-24T18:42:23.184Z,63.90
2022-09-24T18:44:26.695Z,64.03
2022-09-24T18:46:30.875Z,64.25
2022-09-24T18:48:34.151Z,64.10
2022-09-24T18:50:43.551Z,64.03
2022-09-24T18:52:46.217Z,64.02
2022-09-24T18:54:49.026Z,64.47
2022-09-24T18:56:51.663Z,64.46
2022-09-24T18:59:09.616Z,64.63
2022-09-24T19:01:13.316Z,64.48
2022-09-24T19:03:18.133Z,64.15
2022-09-24T19:05:21.673Z,64.35
2022-09-24T19:07:24.286Z,64.32
2022-09-24T19:09:26.954Z,64.70
2022-09-24T19:11:30.655Z,64.34
2022-09-24T19:13:33.740Z,64.38
2022-09-24T19:15:38.285Z,64.79
2022-09-24T19:17:40.988Z,64.85
2022-09-24T19:19:49.929Z,65.03
2022-09-24T19:21:54.850Z,65.09
2022-09-24T19:23:59.113Z,64.95
2022-09-24T19:26:02.801Z,65.59
2022-09-24T19:28:07.315Z,65.75
2022-09-24T19:30:10.314Z,65.63
2022-09-24T19:32:13.035Z,65.66
2022-09-24T19:34:15.751Z,65.82
2022-09-24T19:36:18.959Z,65.73
2022-09-24T19:38:32.811Z,66.21
2022-09-24T19:40:35.554Z,65.98
2022-09-24T19:42:38.288Z,65.92
2022-09-24T19:44:40.886Z,65.75
2022-09-24T19:46:43.989Z,66.07
2022-09-24T19:48:48.888Z,66.10
2022-09-24T19:50:52.062Z,66.35
2022-09-24T19:52:56.155Z,66.69
2022-09-24T19:54:58.779Z,67.02
2022-09-24T19:57:01.424Z,67.19
2022-09-24T19:59:05.154Z,67.70
2022-09-24T20:01:11.390Z,68.00
2022-09-24T20:03:18.613Z,68.35
2022-09-24T20:05:21.365Z,68.61
2022-09-24T20:07:24.022Z,68.78
2022-09-24T20:09:26.777Z,69.07
2022-09-24T20:11:32.723Z,68.68
2022-09-24T20:13:36.026Z,68.39
2022-09-24T20:15:42.035Z,68.51
2022-09-24T20:17:44.817Z,68.57
2022-09-24T20:19:47.473Z,68.33
2022-09-24T20:21:50.292Z,68.03
2022-09-24T20:23:54.733Z,68.05
2022-09-24T20:26:15.754Z,68.50
2022-09-24T20:28:18.436Z,68.64
2022-09-24T20:30:24.033Z,68.40
2022-09-24T20:32:26.779Z,68.25
2022-09-24T20:34:34.076Z,67.98
2022-09-24T20:36:37.081Z,68.21
2022-09-24T20:38:47.714Z,68.05
2022-09-24T20:40:50.466Z,68.46
2022-09-24T20:42:53.123Z,68.17
2022-09-24T20:44:56.272Z,68.42
2022-09-24T20:46:59.727Z,68.71
2022-09-24T20:49:02.592Z,68.46
2022-09-24T20:51:13.048Z,68.44
2022-09-24T20:53:15.699Z,68.77
2022-09-24T20:55:18.337Z,68.93
2022-09-24T20:57:20.960Z,69.32
2022-09-24T20:59:25.786Z,69.53
2022-09-24T21:01:29.137Z,69.45
2022-09-24T21:03:49.651Z,69.81
2022-09-24T21:05:53.008Z,69.95
2022-09-24T21:07:55.656Z,70.31
2022-09-24T21:09:58.447Z,70.40
2022-09-24T21:12:03.539Z,70.45
2022-09-24T21:14:10.026Z,70.83
2022-09-24T21:16:13.136Z,71.01
2022-09-24T21:18:23.304Z,71.23
2022-09-24T21:20:27.242Z,71.23
2022-09-24T21:22:30.021Z,71.45
2022-09-24T21:24:33.246Z,71.36
2022-09-24T21:26:38.774Z,71.14
2022-09-24T21:28:43.595Z,71.47
2022-09-24T21:30:57.175Z,71.60
2022-09-24T21:33:00.288Z,71.39
2022-09-24T21:35:02.897Z,71.52
2022-09-24T21:37:06.146Z,71.22
2022-09-24T21:39:17.147Z,71.70
2022-09-24T21:41:20.381Z,71.21
2022-09-24T21:43:26.911Z,70.84
2022-09-24T21:45:33.206Z,71.13
2022-09-24T21:47:37.434Z,71.29
2022-09-24T21:49:40.223Z,70.92
2022-09-24T21:51:43.583Z,71.30
2022-09-24T21:53:46.461Z,71.20
2022-09-24T21:55:49.419Z,71.01
2022-09-24T21:57:52.019Z,70.93
2022-09-24T22:00:00.644Z,71.05
2022-09-24T22:02:04.600Z,71.10
2022-09-24T22:04:08.089Z,70.85
2022-09-24T22:06:10.838Z,70.98
2022-09-24T22:08:15.746Z,71.07
2022-09-24T22:10:18.401Z,71.11
2022-09-24T22:12:21.000Z,71.14
2022-09-24T22:14:23.845Z,70.53
2022-09-24T22:16:26.893Z,70.98
2022-09-24T22:18:30.679Z,70.91
2022-09-24T22:20:33.403Z,71.11
2022-09-24T22:22:36.031Z,71.01
2022-09-24T22:24:38.922Z,71.32
2022-09-24T22:26:41.749Z,71.59
2022-09-24T22:28:44.746Z,71.61
2022-09-24T22:30:47.422Z,71.83
2022-09-24T22:32:50.209Z,72.29
2022-09-24T22:35:11.544Z,72.40
2022-09-24T22:37:14.233Z,72.19
2022-09-24T22:39:16.967Z,71.77
2022-09-24T22:41:19.678Z,71.78
2022-09-24T22:43:22.355Z,72.00
2022-09-24T22:45:25.135Z,71.90
2022-09-24T22:47:27.806Z,71.96
2022-09-24T22:49:31.569Z,71.82
2022-09-24T22:51:34.490Z,71.88
2022-09-24T22:53:39.801Z,72.03
2022-09-24T22:55:42.465Z,71.73
2022-09-24T22:57:45.220Z,71.91
2022-09-24T22:59:47.912Z,72.22
2022-09-24T23:01:50.660Z,72.56
2022-09-24T23:03:55.118Z,72.35
2022-09-24T23:05:59.640Z,72.62
2022-09-24T23:08:02.510Z,72.95
2022-09-24T23:10:06.826Z,73.30
2022-09-24T23:12:09.600Z,72.99
2022-09-24T23:14:14.994Z,72.95
2022-09-24T23:16:23.503Z,72.91
2022-09-24T23:18:29.160Z,73.13
2022-09-24T23:20:31.716Z,73.23
2022-09-24T23:22:34.555Z,73.05
2022-09-24T23:24:37.777Z,72.86
2022-09-24T23:26:40.786Z,72.84
2022-09-24T23:28:44.369Z,73.02
2022-09-24T23:30:57.940Z,73.25
2022-09-24T23:33:00.662Z,73.12
2022-09-24T23:35:03.601Z,73.06
2022-09-24T23:37:06.377Z,72.66
2022-09-24T23:39:09.055Z,72.47
2022-09-24T23:41:13.524Z,72.20
2022-09-24T23:43:16.244Z,72.72
2022-09-24T23:45:19.059Z,72.54
2022-09-24T23:47:22.849Z,72.59
2022-09-24T23:49:25.504Z,72.44
2022-09-24T23:51:28.236Z,72.21
2022-09-24T23:53:31.676Z,72.41
2022-09-24T23:55:34.280Z,72.55
2022-09-24T23:57:36.883Z,72.39
2022-09-24T23:59:39.679Z,72.68
